sensor_id;sensor_type;location;lat;lon;timestamp;P1;durP1;ratioP1;P2;durP2;ratioP2
12675;SDS011;63820;65.654;21.944;2023-05-10T00:00:21;4.97;;;4.03;;
12675;SDS011;63820;65.654;21.944;2023-05-10T00:03:07;6.50;;;4.20;;
12675;SDS011;63820;65.654;21.944;2023-05-10T00:05:51;6.60;;;4.63;;
12675;SDS011;63820;65.654;21.944;2023-05-10T00:08:35;8.37;;;4.40;;
12675;SDS011;63820;65.654;21.944;2023-05-10T00:11:19;6.93;;;4.40;;
12675;SDS011;63820;65.654;21.944;2023-05-10T00:14:03;9.13;;;5.00;;
12675;SDS011;63820;65.654;21.944;2023-05-10T00:16:48;7.07;;;4.50;;
12675;SDS011;63820;65.654;21.944;2023-05-10T00:19:32;7.30;;;4.40;;
12675;SDS011;63820;65.654;21.944;2023-05-10T00:22:16;7.67;;;4.17;;
12675;SDS011;63820;65.654;21.944;2023-05-10T00:25:00;7.10;;;4.60;;
12675;SDS011;63820;65.654;21.944;2023-05-10T00:27:44;6.43;;;4.27;;
12675;SDS011;63820;65.654;21.944;2023-05-10T00:30:28;6.80;;;4.20;;
12675;SDS011;63820;65.654;21.944;2023-05-10T00:33:12;5.30;;;4.10;;
12675;SDS011;63820;65.654;21.944;2023-05-10T00:35:56;7.40;;;4.23;;
12675;SDS011;63820;65.654;21.944;2023-05-10T00:38:40;7.43;;;4.83;;
12675;SDS011;63820;65.654;21.944;2023-05-10T00:41:24;6.47;;;4.30;;
12675;SDS011;63820;65.654;21.944;2023-05-10T00:44:08;6.40;;;4.40;;
12675;SDS011;63820;65.654;21.944;2023-05-10T00:46:53;5.63;;;4.37;;
12675;SDS011;63820;65.654;21.944;2023-05-10T00:49:37;8.60;;;4.80;;
12675;SDS011;63820;65.654;21.944;2023-05-10T00:52:22;7.33;;;4.63;;
12675;SDS011;63820;65.654;21.944;2023-05-10T00:55:07;6.20;;;4.80;;
12675;SDS011;63820;65.654;21.944;2023-05-10T00:57:53;6.83;;;4.60;;
12675;SDS011;63820;65.654;21.944;2023-05-10T01:00:37;8.23;;;4.33;;
12675;SDS011;63820;65.654;21.944;2023-05-10T01:03:25;5.37;;;4.23;;
12675;SDS011;63820;65.654;21.944;2023-05-10T01:06:09;6.70;;;4.93;;
12675;SDS011;63820;65.654;21.944;2023-05-10T01:08:54;6.97;;;4.50;;
12675;SDS011;63820;65.654;21.944;2023-05-10T01:11:39;6.13;;;4.30;;
12675;SDS011;63820;65.654;21.944;2023-05-10T01:14:24;6.63;;;4.80;;
12675;SDS011;63820;65.654;21.944;2023-05-10T01:17:10;6.53;;;4.40;;
12675;SDS011;63820;65.654;21.944;2023-05-10T01:19:56;9.20;;;4.10;;
12675;SDS011;63820;65.654;21.944;2023-05-10T01:22:53;8.70;;;4.33;;
12675;SDS011;63820;65.654;21.944;2023-05-10T01:29:03;6.43;;;4.23;;
12675;SDS011;63820;65.654;21.944;2023-05-10T01:35:00;6.40;;;4.37;;
12675;SDS011;63820;65.654;21.944;2023-05-10T01:37:56;7.87;;;4.90;;
12675;SDS011;63820;65.654;21.944;2023-05-10T01:47:01;5.90;;;4.30;;
12675;SDS011;63820;65.654;21.944;2023-05-10T01:49:55;5.97;;;4.60;;
12675;SDS011;63820;65.654;21.944;2023-05-10T01:52:42;9.20;;;5.17;;
12675;SDS011;63820;65.654;21.944;2023-05-10T01:55:32;7.60;;;4.60;;
12675;SDS011;63820;65.654;21.944;2023-05-10T01:58:20;6.17;;;4.43;;
12675;SDS011;63820;65.654;21.944;2023-05-10T02:01:15;6.73;;;4.13;;
12675;SDS011;63820;65.654;21.944;2023-05-10T02:04:02;5.17;;;4.27;;
12675;SDS011;63820;65.654;21.944;2023-05-10T02:06:48;7.43;;;4.60;;
12675;SDS011;63820;65.654;21.944;2023-05-10T02:09:35;5.47;;;4.43;;
12675;SDS011;63820;65.654;21.944;2023-05-10T02:12:21;6.53;;;4.43;;
12675;SDS011;63820;65.654;21.944;2023-05-10T02:15:07;8.23;;;4.23;;
12675;SDS011;63820;65.654;21.944;2023-05-10T02:17:54;9.67;;;4.57;;
12675;SDS011;63820;65.654;21.944;2023-05-10T02:20:39;5.47;;;4.30;;
12675;SDS011;63820;65.654;21.944;2023-05-10T02:23:24;5.50;;;4.27;;
12675;SDS011;63820;65.654;21.944;2023-05-10T02:26:10;6.23;;;4.50;;
12675;SDS011;63820;65.654;21.944;2023-05-10T02:28:57;6.90;;;4.10;;
12675;SDS011;63820;65.654;21.944;2023-05-10T02:31:42;7.43;;;4.37;;
12675;SDS011;63820;65.654;21.944;2023-05-10T02:34:27;7.93;;;4.60;;
12675;SDS011;63820;65.654;21.944;2023-05-10T02:37:13;6.57;;;5.03;;
12675;SDS011;63820;65.654;21.944;2023-05-10T02:39:59;6.97;;;4.50;;
12675;SDS011;63820;65.654;21.944;2023-05-10T02:42:44;7.67;;;4.60;;
12675;SDS011;63820;65.654;21.944;2023-05-10T02:45:31;6.67;;;4.67;;
12675;SDS011;63820;65.654;21.944;2023-05-10T02:48:17;6.77;;;4.40;;
12675;SDS011;63820;65.654;21.944;2023-05-10T02:51:04;6.27;;;4.40;;
12675;SDS011;63820;65.654;21.944;2023-05-10T02:53:50;6.50;;;4.47;;
12675;SDS011;63820;65.654;21.944;2023-05-10T02:56:40;6.23;;;4.67;;
12675;SDS011;63820;65.654;21.944;2023-05-10T02:59:30;7.57;;;5.00;;
12675;SDS011;63820;65.654;21.944;2023-05-10T03:02:15;8.03;;;5.00;;
12675;SDS011;63820;65.654;21.944;2023-05-10T03:05:00;8.47;;;4.80;;
12675;SDS011;63820;65.654;21.944;2023-05-10T03:07:44;8.17;;;4.73;;
12675;SDS011;63820;65.654;21.944;2023-05-10T03:10:29;8.33;;;4.70;;
12675;SDS011;63820;65.654;21.944;2023-05-10T03:16:10;7.13;;;4.60;;
12675;SDS011;63820;65.654;21.944;2023-05-10T03:19:11;7.40;;;4.23;;
12675;SDS011;63820;65.654;21.944;2023-05-10T03:22:04;8.57;;;4.43;;
12675;SDS011;63820;65.654;21.944;2023-05-10T03:24:53;6.47;;;4.50;;
12675;SDS011;63820;65.654;21.944;2023-05-10T03:27:41;9.43;;;4.63;;
12675;SDS011;63820;65.654;21.944;2023-05-10T03:30:27;9.47;;;4.43;;
12675;SDS011;63820;65.654;21.944;2023-05-10T03:33:13;7.40;;;4.60;;
12675;SDS011;63820;65.654;21.944;2023-05-10T03:35:57;7.67;;;4.53;;
12675;SDS011;63820;65.654;21.944;2023-05-10T03:38:41;5.63;;;4.10;;
12675;SDS011;63820;65.654;21.944;2023-05-10T03:41:25;5.93;;;4.23;;
12675;SDS011;63820;65.654;21.944;2023-05-10T03:44:10;7.73;;;5.17;;
12675;SDS011;63820;65.654;21.944;2023-05-10T03:46:54;7.10;;;4.40;;
12675;SDS011;63820;65.654;21.944;2023-05-10T03:49:39;4.43;;;3.90;;
12675;SDS011;63820;65.654;21.944;2023-05-10T03:52:23;6.67;;;3.97;;
12675;SDS011;63820;65.654;21.944;2023-05-10T03:55:07;10.97;;;5.00;;
12675;SDS011;63820;65.654;21.944;2023-05-10T03:57:51;5.57;;;4.43;;
12675;SDS011;63820;65.654;21.944;2023-05-10T04:00:37;5.97;;;4.20;;
12675;SDS011;63820;65.654;21.944;2023-05-10T04:03:27;6.63;;;4.13;;
12675;SDS011;63820;65.654;21.944;2023-05-10T04:06:11;7.47;;;4.20;;
12675;SDS011;63820;65.654;21.944;2023-05-10T04:08:55;7.67;;;3.90;;
12675;SDS011;63820;65.654;21.944;2023-05-10T04:11:39;5.43;;;3.93;;
12675;SDS011;63820;65.654;21.944;2023-05-10T04:14:23;10.33;;;4.47;;
12675;SDS011;63820;65.654;21.944;2023-05-10T04:17:07;9.50;;;4.70;;
12675;SDS011;63820;65.654;21.944;2023-05-10T04:19:52;6.07;;;3.90;;
12675;SDS011;63820;65.654;21.944;2023-05-10T04:22:38;6.37;;;4.00;;
12675;SDS011;63820;65.654;21.944;2023-05-10T04:25:22;6.37;;;4.00;;
12675;SDS011;63820;65.654;21.944;2023-05-10T04:28:06;6.23;;;4.33;;
12675;SDS011;63820;65.654;21.944;2023-05-10T04:30:50;6.17;;;3.97;;
12675;SDS011;63820;65.654;21.944;2023-05-10T04:33:34;6.03;;;4.00;;
12675;SDS011;63820;65.654;21.944;2023-05-10T04:36:18;8.47;;;4.03;;
12675;SDS011;63820;65.654;21.944;2023-05-10T04:39:03;5.20;;;4.23;;
12675;SDS011;63820;65.654;21.944;2023-05-10T04:41:47;7.40;;;4.47;;
12675;SDS011;63820;65.654;21.944;2023-05-10T04:44:32;5.93;;;4.07;;
12675;SDS011;63820;65.654;21.944;2023-05-10T04:47:16;7.63;;;4.23;;
12675;SDS011;63820;65.654;21.944;2023-05-10T04:50:00;9.23;;;4.17;;
12675;SDS011;63820;65.654;21.944;2023-05-10T04:52:44;7.57;;;4.67;;
12675;SDS011;63820;65.654;21.944;2023-05-10T04:55:29;5.13;;;4.00;;
12675;SDS011;63820;65.654;21.944;2023-05-10T04:58:13;4.63;;;4.20;;
12675;SDS011;63820;65.654;21.944;2023-05-10T05:01:03;6.83;;;4.10;;
12675;SDS011;63820;65.654;21.944;2023-05-10T05:03:48;7.40;;;4.53;;
12675;SDS011;63820;65.654;21.944;2023-05-10T05:06:33;9.00;;;4.57;;
12675;SDS011;63820;65.654;21.944;2023-05-10T05:09:17;7.30;;;5.03;;
12675;SDS011;63820;65.654;21.944;2023-05-10T05:12:01;7.80;;;4.57;;
12675;SDS011;63820;65.654;21.944;2023-05-10T05:14:45;5.80;;;4.27;;
12675;SDS011;63820;65.654;21.944;2023-05-10T05:17:32;4.97;;;4.10;;
12675;SDS011;63820;65.654;21.944;2023-05-10T05:20:16;6.73;;;4.67;;
12675;SDS011;63820;65.654;21.944;2023-05-10T05:23:01;5.93;;;4.40;;
12675;SDS011;63820;65.654;21.944;2023-05-10T05:25:45;6.43;;;5.20;;
12675;SDS011;63820;65.654;21.944;2023-05-10T05:28:30;9.30;;;4.90;;
12675;SDS011;63820;65.654;21.944;2023-05-10T05:31:16;7.00;;;4.97;;
12675;SDS011;63820;65.654;21.944;2023-05-10T05:34:01;5.67;;;4.33;;
12675;SDS011;63820;65.654;21.944;2023-05-10T05:36:45;6.20;;;4.40;;
12675;SDS011;63820;65.654;21.944;2023-05-10T05:39:29;8.20;;;4.53;;
12675;SDS011;63820;65.654;21.944;2023-05-10T05:42:14;8.03;;;4.90;;
12675;SDS011;63820;65.654;21.944;2023-05-10T05:44:59;9.13;;;5.30;;
12675;SDS011;63820;65.654;21.944;2023-05-10T05:47:43;7.80;;;5.03;;
12675;SDS011;63820;65.654;21.944;2023-05-10T05:50:28;9.00;;;5.10;;
12675;SDS011;63820;65.654;21.944;2023-05-10T05:53:12;6.47;;;4.60;;
12675;SDS011;63820;65.654;21.944;2023-05-10T05:55:56;7.33;;;4.70;;
12675;SDS011;63820;65.654;21.944;2023-05-10T05:58:42;8.60;;;5.17;;
12675;SDS011;63820;65.654;21.944;2023-05-10T06:01:25;5.63;;;4.27;;
12675;SDS011;63820;65.654;21.944;2023-05-10T06:04:10;6.30;;;4.77;;
12675;SDS011;63820;65.654;21.944;2023-05-10T06:06:53;5.30;;;4.40;;
12675;SDS011;63820;65.654;21.944;2023-05-10T06:09:37;6.67;;;4.97;;
12675;SDS011;63820;65.654;21.944;2023-05-10T06:12:21;7.80;;;4.80;;
12675;SDS011;63820;65.654;21.944;2023-05-10T06:15:05;7.73;;;4.87;;
12675;SDS011;63820;65.654;21.944;2023-05-10T06:17:50;5.50;;;4.10;;
12675;SDS011;63820;65.654;21.944;2023-05-10T06:20:34;5.83;;;4.53;;
12675;SDS011;63820;65.654;21.944;2023-05-10T06:23:18;9.20;;;4.30;;
12675;SDS011;63820;65.654;21.944;2023-05-10T06:26:02;7.30;;;4.87;;
12675;SDS011;63820;65.654;21.944;2023-05-10T06:28:47;6.27;;;4.33;;
12675;SDS011;63820;65.654;21.944;2023-05-10T06:31:30;6.87;;;5.00;;
12675;SDS011;63820;65.654;21.944;2023-05-10T06:34:14;6.70;;;4.60;;
12675;SDS011;63820;65.654;21.944;2023-05-10T06:36:59;5.80;;;4.37;;
12675;SDS011;63820;65.654;21.944;2023-05-10T06:39:43;6.97;;;4.40;;
12675;SDS011;63820;65.654;21.944;2023-05-10T06:42:27;4.43;;;4.03;;
12675;SDS011;63820;65.654;21.944;2023-05-10T06:45:12;6.50;;;4.17;;
12675;SDS011;63820;65.654;21.944;2023-05-10T06:47:56;5.80;;;4.27;;
12675;SDS011;63820;65.654;21.944;2023-05-10T06:50:40;4.53;;;3.90;;
12675;SDS011;63820;65.654;21.944;2023-05-10T06:53:24;5.60;;;3.60;;
12675;SDS011;63820;65.654;21.944;2023-05-10T06:56:09;5.97;;;3.50;;
12675;SDS011;63820;65.654;21.944;2023-05-10T06:58:53;4.93;;;3.50;;
12675;SDS011;63820;65.654;21.944;2023-05-10T07:01:37;4.57;;;3.00;;
12675;SDS011;63820;65.654;21.944;2023-05-10T07:04:21;3.83;;;2.97;;
12675;SDS011;63820;65.654;21.944;2023-05-10T07:07:05;3.63;;;3.17;;
12675;SDS011;63820;65.654;21.944;2023-05-10T07:09:49;5.50;;;2.80;;
12675;SDS011;63820;65.654;21.944;2023-05-10T07:12:34;6.07;;;3.00;;
12675;SDS011;63820;65.654;21.944;2023-05-10T07:15:18;3.83;;;2.78;;
12675;SDS011;63820;65.654;21.944;2023-05-10T07:18:03;3.42;;;2.92;;
12675;SDS011;63820;65.654;21.944;2023-05-10T07:20:49;4.95;;;2.75;;
12675;SDS011;63820;65.654;21.944;2023-05-10T07:23:33;3.03;;;2.60;;
12675;SDS011;63820;65.654;21.944;2023-05-10T07:26:18;4.10;;;2.88;;
12675;SDS011;63820;65.654;21.944;2023-05-10T07:29:03;3.25;;;2.90;;
12675;SDS011;63820;65.654;21.944;2023-05-10T07:31:47;5.18;;;2.90;;
12675;SDS011;63820;65.654;21.944;2023-05-10T07:34:31;3.20;;;2.90;;
12675;SDS011;63820;65.654;21.944;2023-05-10T07:37:16;3.58;;;3.05;;
12675;SDS011;63820;65.654;21.944;2023-05-10T07:40:00;3.17;;;2.80;;
12675;SDS011;63820;65.654;21.944;2023-05-10T07:42:45;3.00;;;2.70;;
12675;SDS011;63820;65.654;21.944;2023-05-10T07:45:29;3.67;;;2.80;;
12675;SDS011;63820;65.654;21.944;2023-05-10T07:48:13;3.75;;;2.58;;
12675;SDS011;63820;65.654;21.944;2023-05-10T07:50:57;3.58;;;2.55;;
12675;SDS011;63820;65.654;21.944;2023-05-10T07:53:41;3.60;;;2.80;;
12675;SDS011;63820;65.654;21.944;2023-05-10T07:56:26;3.75;;;2.70;;
12675;SDS011;63820;65.654;21.944;2023-05-10T07:59:16;4.25;;;3.20;;
12675;SDS011;63820;65.654;21.944;2023-05-10T08:02:01;3.35;;;2.50;;
12675;SDS011;63820;65.654;21.944;2023-05-10T08:04:45;3.20;;;2.55;;
12675;SDS011;63820;65.654;21.944;2023-05-10T08:07:29;5.28;;;2.90;;
12675;SDS011;63820;65.654;21.944;2023-05-10T08:10:13;2.90;;;2.60;;
12675;SDS011;63820;65.654;21.944;2023-05-10T08:12:57;3.20;;;2.53;;
12675;SDS011;63820;65.654;21.944;2023-05-10T08:15:46;3.75;;;2.80;;
12675;SDS011;63820;65.654;21.944;2023-05-10T08:18:31;4.03;;;3.08;;
12675;SDS011;63820;65.654;21.944;2023-05-10T08:21:15;4.43;;;2.63;;
12675;SDS011;63820;65.654;21.944;2023-05-10T08:23:59;5.35;;;2.97;;
12675;SDS011;63820;65.654;21.944;2023-05-10T08:26:44;5.72;;;2.70;;
12675;SDS011;63820;65.654;21.944;2023-05-10T08:29:28;5.43;;;3.20;;
12675;SDS011;63820;65.654;21.944;2023-05-10T08:32:12;4.75;;;2.90;;
12675;SDS011;63820;65.654;21.944;2023-05-10T08:34:56;4.47;;;3.28;;
12675;SDS011;63820;65.654;21.944;2023-05-10T08:37:41;5.85;;;3.00;;
12675;SDS011;63820;65.654;21.944;2023-05-10T08:40:25;4.72;;;3.08;;
12675;SDS011;63820;65.654;21.944;2023-05-10T08:43:11;4.70;;;2.55;;
12675;SDS011;63820;65.654;21.944;2023-05-10T08:46:00;4.38;;;2.53;;
12675;SDS011;63820;65.654;21.944;2023-05-10T08:48:49;6.75;;;3.00;;
12675;SDS011;63820;65.654;21.944;2023-05-10T08:51:35;4.88;;;3.08;;
12675;SDS011;63820;65.654;21.944;2023-05-10T08:54:23;4.03;;;3.00;;
12675;SDS011;63820;65.654;21.944;2023-05-10T08:57:07;8.60;;;3.78;;
12675;SDS011;63820;65.654;21.944;2023-05-10T08:59:52;5.82;;;3.40;;
12675;SDS011;63820;65.654;21.944;2023-05-10T09:02:36;7.63;;;2.75;;
12675;SDS011;63820;65.654;21.944;2023-05-10T09:05:21;6.18;;;3.45;;
12675;SDS011;63820;65.654;21.944;2023-05-10T09:08:05;4.78;;;3.13;;
12675;SDS011;63820;65.654;21.944;2023-05-10T09:10:50;4.00;;;2.90;;
12675;SDS011;63820;65.654;21.944;2023-05-10T09:13:35;4.68;;;2.67;;
12675;SDS011;63820;65.654;21.944;2023-05-10T09:16:20;6.93;;;3.20;;
12675;SDS011;63820;65.654;21.944;2023-05-10T09:19:04;6.30;;;3.10;;
12675;SDS011;63820;65.654;21.944;2023-05-10T09:21:50;6.63;;;3.20;;
12675;SDS011;63820;65.654;21.944;2023-05-10T09:24:34;4.85;;;3.10;;
12675;SDS011;63820;65.654;21.944;2023-05-10T09:27:26;5.07;;;3.17;;
12675;SDS011;63820;65.654;21.944;2023-05-10T09:30:11;6.07;;;3.10;;
12675;SDS011;63820;65.654;21.944;2023-05-10T09:33:00;6.38;;;3.40;;
12675;SDS011;63820;65.654;21.944;2023-05-10T09:35:44;8.53;;;3.47;;
12675;SDS011;63820;65.654;21.944;2023-05-10T09:38:28;4.37;;;2.97;;
12675;SDS011;63820;65.654;21.944;2023-05-10T09:41:29;4.53;;;3.10;;
12675;SDS011;63820;65.654;21.944;2023-05-10T09:44:16;5.73;;;3.07;;
12675;SDS011;63820;65.654;21.944;2023-05-10T09:47:02;6.17;;;3.10;;
12675;SDS011;63820;65.654;21.944;2023-05-10T09:49:50;5.27;;;3.10;;
12675;SDS011;63820;65.654;21.944;2023-05-10T09:55:38;6.00;;;2.95;;
12675;SDS011;63820;65.654;21.944;2023-05-10T09:58:25;5.30;;;3.17;;
12675;SDS011;63820;65.654;21.944;2023-05-10T10:01:10;5.30;;;2.80;;
12675;SDS011;63820;65.654;21.944;2023-05-10T10:03:56;5.95;;;3.00;;
12675;SDS011;63820;65.654;21.944;2023-05-10T10:06:41;7.25;;;3.28;;
12675;SDS011;63820;65.654;21.944;2023-05-10T10:09:25;4.97;;;3.00;;
12675;SDS011;63820;65.654;21.944;2023-05-10T10:12:10;4.75;;;3.00;;
12675;SDS011;63820;65.654;21.944;2023-05-10T10:14:54;5.93;;;3.42;;
12675;SDS011;63820;65.654;21.944;2023-05-10T10:17:39;5.97;;;3.00;;
12675;SDS011;63820;65.654;21.944;2023-05-10T10:20:24;6.82;;;3.60;;
12675;SDS011;63820;65.654;21.944;2023-05-10T10:23:10;4.50;;;3.20;;
12675;SDS011;63820;65.654;21.944;2023-05-10T10:25:54;6.00;;;3.57;;
12675;SDS011;63820;65.654;21.944;2023-05-10T10:28:41;5.17;;;3.37;;
12675;SDS011;63820;65.654;21.944;2023-05-10T10:31:39;6.40;;;3.53;;
12675;SDS011;63820;65.654;21.944;2023-05-10T10:34:29;5.40;;;3.20;;
12675;SDS011;63820;65.654;21.944;2023-05-10T10:37:15;4.67;;;3.03;;
12675;SDS011;63820;65.654;21.944;2023-05-10T10:39:59;6.43;;;3.40;;
12675;SDS011;63820;65.654;21.944;2023-05-10T10:42:43;6.77;;;3.20;;
12675;SDS011;63820;65.654;21.944;2023-05-10T10:45:29;6.43;;;3.40;;
12675;SDS011;63820;65.654;21.944;2023-05-10T10:48:20;5.53;;;3.37;;
12675;SDS011;63820;65.654;21.944;2023-05-10T10:51:06;4.90;;;3.30;;
12675;SDS011;63820;65.654;21.944;2023-05-10T10:53:50;6.30;;;2.93;;
12675;SDS011;63820;65.654;21.944;2023-05-10T10:56:34;6.87;;;2.83;;
12675;SDS011;63820;65.654;21.944;2023-05-10T10:59:26;6.73;;;3.00;;
12675;SDS011;63820;65.654;21.944;2023-05-10T11:11:13;5.37;;;2.97;;
12675;SDS011;63820;65.654;21.944;2023-05-10T11:14:02;7.60;;;3.47;;
12675;SDS011;63820;65.654;21.944;2023-05-10T11:16:48;8.77;;;3.50;;
12675;SDS011;63820;65.654;21.944;2023-05-10T11:19:32;5.43;;;3.20;;
12675;SDS011;63820;65.654;21.944;2023-05-10T11:22:16;7.37;;;3.20;;
12675;SDS011;63820;65.654;21.944;2023-05-10T11:25:01;6.60;;;3.23;;
12675;SDS011;63820;65.654;21.944;2023-05-10T11:27:49;4.93;;;3.17;;
12675;SDS011;63820;65.654;21.944;2023-05-10T11:30:33;25.03;;;4.90;;
12675;SDS011;63820;65.654;21.944;2023-05-10T11:33:17;7.77;;;3.30;;
12675;SDS011;63820;65.654;21.944;2023-05-10T11:36:03;6.80;;;3.30;;
12675;SDS011;63820;65.654;21.944;2023-05-10T11:38:47;4.63;;;3.17;;
12675;SDS011;63820;65.654;21.944;2023-05-10T11:41:32;7.27;;;3.37;;
12675;SDS011;63820;65.654;21.944;2023-05-10T11:44:17;4.83;;;3.07;;
12675;SDS011;63820;65.654;21.944;2023-05-10T11:47:01;7.50;;;3.07;;
12675;SDS011;63820;65.654;21.944;2023-05-10T11:49:48;5.93;;;3.10;;
12675;SDS011;63820;65.654;21.944;2023-05-10T11:52:36;5.23;;;3.03;;
12675;SDS011;63820;65.654;21.944;2023-05-10T11:55:23;4.23;;;2.80;;
12675;SDS011;63820;65.654;21.944;2023-05-10T11:58:10;4.47;;;3.23;;
12675;SDS011;63820;65.654;21.944;2023-05-10T12:00:54;3.37;;;2.77;;
12675;SDS011;63820;65.654;21.944;2023-05-10T12:03:38;4.13;;;3.00;;
12675;SDS011;63820;65.654;21.944;2023-05-10T12:06:25;3.77;;;2.63;;
12675;SDS011;63820;65.654;21.944;2023-05-10T12:09:11;3.83;;;2.73;;
12675;SDS011;63820;65.654;21.944;2023-05-10T12:11:55;4.43;;;2.80;;
12675;SDS011;63820;65.654;21.944;2023-05-10T12:14:43;4.97;;;3.23;;
12675;SDS011;63820;65.654;21.944;2023-05-10T12:17:27;4.87;;;3.00;;
12675;SDS011;63820;65.654;21.944;2023-05-10T12:20:16;8.47;;;3.17;;
12675;SDS011;63820;65.654;21.944;2023-05-10T12:23:05;4.23;;;2.70;;
12675;SDS011;63820;65.654;21.944;2023-05-10T12:25:53;4.80;;;2.93;;
12675;SDS011;63820;65.654;21.944;2023-05-10T12:28:37;3.67;;;2.90;;
12675;SDS011;63820;65.654;21.944;2023-05-10T12:31:23;5.73;;;3.00;;
12675;SDS011;63820;65.654;21.944;2023-05-10T12:34:07;4.10;;;2.87;;
12675;SDS011;63820;65.654;21.944;2023-05-10T12:36:52;4.90;;;3.10;;
12675;SDS011;63820;65.654;21.944;2023-05-10T12:39:41;4.40;;;2.77;;
12675;SDS011;63820;65.654;21.944;2023-05-10T12:42:26;4.27;;;2.90;;
12675;SDS011;63820;65.654;21.944;2023-05-10T12:45:11;4.10;;;2.83;;
12675;SDS011;63820;65.654;21.944;2023-05-10T12:47:56;4.83;;;2.97;;
12675;SDS011;63820;65.654;21.944;2023-05-10T12:50:40;4.77;;;2.70;;
12675;SDS011;63820;65.654;21.944;2023-05-10T12:53:25;3.50;;;2.93;;
12675;SDS011;63820;65.654;21.944;2023-05-10T12:56:09;4.27;;;2.80;;
12675;SDS011;63820;65.654;21.944;2023-05-10T12:58:53;5.90;;;3.00;;
12675;SDS011;63820;65.654;21.944;2023-05-10T13:01:37;4.43;;;2.67;;
12675;SDS011;63820;65.654;21.944;2023-05-10T13:04:22;4.97;;;3.00;;
12675;SDS011;63820;65.654;21.944;2023-05-10T13:07:06;4.33;;;2.77;;
12675;SDS011;63820;65.654;21.944;2023-05-10T13:09:50;4.40;;;2.80;;
12675;SDS011;63820;65.654;21.944;2023-05-10T13:12:34;5.10;;;2.87;;
12675;SDS011;63820;65.654;21.944;2023-05-10T13:15:19;4.53;;;2.63;;
12675;SDS011;63820;65.654;21.944;2023-05-10T13:18:02;5.17;;;3.20;;
12675;SDS011;63820;65.654;21.944;2023-05-10T13:20:46;5.30;;;3.00;;
12675;SDS011;63820;65.654;21.944;2023-05-10T13:23:30;4.10;;;2.77;;
12675;SDS011;63820;65.654;21.944;2023-05-10T13:26:15;4.33;;;2.80;;
12675;SDS011;63820;65.654;21.944;2023-05-10T13:28:59;3.63;;;2.80;;
12675;SDS011;63820;65.654;21.944;2023-05-10T13:31:43;5.60;;;2.83;;
12675;SDS011;63820;65.654;21.944;2023-05-10T13:34:27;4.97;;;3.00;;
12675;SDS011;63820;65.654;21.944;2023-05-10T13:37:11;3.33;;;2.60;;
12675;SDS011;63820;65.654;21.944;2023-05-10T13:39:56;3.17;;;2.80;;
12675;SDS011;63820;65.654;21.944;2023-05-10T13:42:40;3.67;;;2.80;;
12675;SDS011;63820;65.654;21.944;2023-05-10T13:45:24;3.23;;;2.33;;
12675;SDS011;63820;65.654;21.944;2023-05-10T13:48:08;3.50;;;2.63;;
12675;SDS011;63820;65.654;21.944;2023-05-10T13:50:52;6.10;;;2.90;;
12675;SDS011;63820;65.654;21.944;2023-05-10T13:53:36;3.27;;;2.77;;
12675;SDS011;63820;65.654;21.944;2023-05-10T13:56:20;4.20;;;2.83;;
12675;SDS011;63820;65.654;21.944;2023-05-10T13:59:04;4.70;;;3.03;;
12675;SDS011;63820;65.654;21.944;2023-05-10T14:01:48;5.77;;;3.10;;
12675;SDS011;63820;65.654;21.944;2023-05-10T14:04:32;4.13;;;2.47;;
12675;SDS011;63820;65.654;21.944;2023-05-10T14:07:19;4.00;;;2.43;;
12675;SDS011;63820;65.654;21.944;2023-05-10T14:10:03;7.20;;;2.90;;
12675;SDS011;63820;65.654;21.944;2023-05-10T14:12:47;5.00;;;2.90;;
12675;SDS011;63820;65.654;21.944;2023-05-10T14:15:31;3.90;;;2.77;;
12675;SDS011;63820;65.654;21.944;2023-05-10T14:18:15;3.37;;;2.60;;
12675;SDS011;63820;65.654;21.944;2023-05-10T14:21:00;6.93;;;3.20;;
12675;SDS011;63820;65.654;21.944;2023-05-10T14:23:45;3.73;;;2.90;;
12675;SDS011;63820;65.654;21.944;2023-05-10T14:26:29;5.10;;;2.87;;
12675;SDS011;63820;65.654;21.944;2023-05-10T14:29:13;3.03;;;2.43;;
12675;SDS011;63820;65.654;21.944;2023-05-10T14:31:57;3.53;;;2.50;;
12675;SDS011;63820;65.654;21.944;2023-05-10T14:34:42;5.60;;;2.87;;
12675;SDS011;63820;65.654;21.944;2023-05-10T14:37:26;2.70;;;2.50;;
12675;SDS011;63820;65.654;21.944;2023-05-10T14:40:10;4.93;;;2.63;;
12675;SDS011;63820;65.654;21.944;2023-05-10T14:42:55;4.50;;;2.60;;
12675;SDS011;63820;65.654;21.944;2023-05-10T14:45:40;5.17;;;2.67;;
12675;SDS011;63820;65.654;21.944;2023-05-10T14:48:25;3.47;;;2.57;;
12675;SDS011;63820;65.654;21.944;2023-05-10T14:51:09;4.20;;;2.93;;
12675;SDS011;63820;65.654;21.944;2023-05-10T14:53:52;4.20;;;2.97;;
12675;SDS011;63820;65.654;21.944;2023-05-10T14:56:36;5.53;;;3.00;;
12675;SDS011;63820;65.654;21.944;2023-05-10T14:59:21;5.60;;;2.57;;
12675;SDS011;63820;65.654;21.944;2023-05-10T15:02:05;2.93;;;2.50;;
12675;SDS011;63820;65.654;21.944;2023-05-10T15:04:49;4.57;;;2.70;;
12675;SDS011;63820;65.654;21.944;2023-05-10T15:07:34;3.67;;;2.60;;
12675;SDS011;63820;65.654;21.944;2023-05-10T15:10:18;4.30;;;2.80;;
12675;SDS011;63820;65.654;21.944;2023-05-10T15:13:03;5.90;;;2.70;;
12675;SDS011;63820;65.654;21.944;2023-05-10T15:15:48;4.60;;;2.80;;
12675;SDS011;63820;65.654;21.944;2023-05-10T15:18:32;3.00;;;2.67;;
12675;SDS011;63820;65.654;21.944;2023-05-10T15:21:16;5.00;;;2.90;;
12675;SDS011;63820;65.654;21.944;2023-05-10T15:24:00;7.93;;;2.50;;
12675;SDS011;63820;65.654;21.944;2023-05-10T15:26:44;4.40;;;2.40;;
12675;SDS011;63820;65.654;21.944;2023-05-10T15:29:28;3.33;;;2.50;;
12675;SDS011;63820;65.654;21.944;2023-05-10T15:32:13;4.07;;;2.50;;
12675;SDS011;63820;65.654;21.944;2023-05-10T15:34:57;4.67;;;2.57;;
12675;SDS011;63820;65.654;21.944;2023-05-10T15:37:42;2.83;;;2.23;;
12675;SDS011;63820;65.654;21.944;2023-05-10T15:40:26;6.23;;;2.53;;
12675;SDS011;63820;65.654;21.944;2023-05-10T15:43:09;3.43;;;2.77;;
12675;SDS011;63820;65.654;21.944;2023-05-10T15:45:54;3.67;;;2.80;;
12675;SDS011;63820;65.654;21.944;2023-05-10T15:48:38;3.13;;;2.30;;
12675;SDS011;63820;65.654;21.944;2023-05-10T15:51:22;4.83;;;2.60;;
12675;SDS011;63820;65.654;21.944;2023-05-10T15:54:06;6.30;;;2.70;;
12675;SDS011;63820;65.654;21.944;2023-05-10T15:56:50;4.93;;;2.70;;
12675;SDS011;63820;65.654;21.944;2023-05-10T15:59:36;4.83;;;2.60;;
12675;SDS011;63820;65.654;21.944;2023-05-10T16:02:20;4.27;;;2.53;;
12675;SDS011;63820;65.654;21.944;2023-05-10T16:05:06;3.57;;;2.50;;
12675;SDS011;63820;65.654;21.944;2023-05-10T16:07:50;5.87;;;2.30;;
12675;SDS011;63820;65.654;21.944;2023-05-10T16:10:35;4.67;;;2.40;;
12675;SDS011;63820;65.654;21.944;2023-05-10T16:13:20;3.63;;;2.70;;
12675;SDS011;63820;65.654;21.944;2023-05-10T16:16:05;2.80;;;2.47;;
12675;SDS011;63820;65.654;21.944;2023-05-10T16:18:51;3.47;;;2.20;;
12675;SDS011;63820;65.654;21.944;2023-05-10T16:21:36;3.43;;;2.70;;
12675;SDS011;63820;65.654;21.944;2023-05-10T16:24:20;3.57;;;2.70;;
12675;SDS011;63820;65.654;21.944;2023-05-10T16:27:05;4.03;;;2.77;;
12675;SDS011;63820;65.654;21.944;2023-05-10T16:29:49;5.03;;;2.60;;
12675;SDS011;63820;65.654;21.944;2023-05-10T16:32:33;5.63;;;2.60;;
12675;SDS011;63820;65.654;21.944;2023-05-10T16:35:18;4.37;;;2.87;;
12675;SDS011;63820;65.654;21.944;2023-05-10T16:38:02;3.07;;;2.50;;
12675;SDS011;63820;65.654;21.944;2023-05-10T16:40:46;3.37;;;2.73;;
12675;SDS011;63820;65.654;21.944;2023-05-10T16:43:31;3.47;;;2.53;;
12675;SDS011;63820;65.654;21.944;2023-05-10T16:46:15;5.13;;;2.70;;